createdAt,value
2023-04-21T00:02:07.512Z,64.29
2023-04-21T00:04:35.977Z,64.25
2023-04-21T00:07:05.776Z,63.92
2023-04-21T00:09:34.028Z,64.27
2023-04-21T00:12:02.257Z,64.24
2023-04-21T00:14:30.553Z,64.05
2023-04-21T00:17:00.403Z,64.00
2023-04-21T00:19:28.970Z,63.83
2023-04-21T00:21:59.076Z,64.21
2023-04-21T00:24:28.883Z,63.83
2023-04-21T00:26:57.248Z,63.69
2023-04-21T00:29:25.902Z,63.68
2023-04-21T00:31:54.256Z,63.89
2023-04-21T00:34:22.557Z,63.89
2023-04-21T00:36:50.747Z,63.95
2023-04-21T00:39:19.255Z,63.89
2023-04-21T00:41:49.829Z,63.85
2023-04-21T00:44:18.146Z,64.03
2023-04-21T00:46:46.469Z,64.19
2023-04-21T00:49:16.360Z,64.24
2023-04-21T00:51:44.826Z,64.12
2023-04-21T00:54:13.432Z,63.56
2023-04-21T00:56:41.697Z,63.99
2023-04-21T00:59:11.453Z,64.25
2023-04-21T01:01:42.391Z,64.42
2023-04-21T01:04:11.331Z,63.73
2023-04-21T01:06:39.833Z,63.63
2023-04-21T01:09:08.172Z,63.96
2023-04-21T01:11:38.640Z,63.82
2023-04-21T01:14:08.948Z,63.79
2023-04-21T01:16:40.388Z,63.94
2023-04-21T01:19:08.733Z,63.67
2023-04-21T01:21:41.728Z,63.74
2023-04-21T01:24:10.128Z,63.56
2023-04-21T01:26:38.460Z,64.26
2023-04-21T01:29:06.832Z,64.08
2023-04-21T01:31:35.273Z,63.74
2023-04-21T01:34:05.352Z,64.22
2023-04-21T01:36:33.731Z,63.24
2023-04-21T01:39:04.213Z,63.98
2023-04-21T01:41:32.735Z,63.84
2023-04-21T01:44:01.206Z,64.25
2023-04-21T01:46:29.525Z,63.77
2023-04-21T01:48:58.025Z,63.94
2023-04-21T01:51:27.718Z,63.79
2023-04-21T01:53:55.966Z,63.95
2023-04-21T01:56:26.871Z,63.58
2023-04-21T01:58:56.013Z,64.02
2023-04-21T02:01:25.085Z,63.54
2023-04-21T02:03:53.554Z,64.03
2023-04-21T02:06:21.924Z,63.46
2023-04-21T02:08:50.232Z,63.05
2023-04-21T02:11:18.545Z,63.11
2023-04-21T02:13:48.133Z,62.92
2023-04-21T02:16:16.482Z,63.02
2023-04-21T02:18:48.411Z,62.60
2023-04-21T02:21:16.716Z,62.50
2023-04-21T02:23:44.953Z,62.32
2023-04-21T02:26:13.180Z,62.79
2023-04-21T02:28:41.422Z,62.33
2023-04-21T02:31:11.265Z,62.68
2023-04-21T02:33:39.726Z,62.30
2023-04-21T02:36:08.412Z,61.97
2023-04-21T02:38:36.678Z,62.09
2023-04-21T02:41:05.066Z,62.01
2023-04-21T02:43:35.168Z,61.74
2023-04-21T02:46:07.655Z,61.80
2023-04-21T02:48:37.826Z,61.49
2023-04-21T02:51:12.964Z,61.44
2023-04-21T02:53:41.930Z,61.44
2023-04-21T02:56:10.615Z,61.38
2023-04-21T02:58:39.825Z,61.17
2023-04-21T03:01:08.260Z,61.31
2023-04-21T03:03:37.963Z,61.19
2023-04-21T03:06:07.236Z,61.15
2023-04-21T03:08:35.853Z,61.03
2023-04-21T03:11:04.151Z,60.99
2023-04-21T03:13:32.397Z,61.01
2023-04-21T03:16:00.834Z,60.89
2023-04-21T03:18:29.158Z,60.71
2023-04-21T03:21:01.992Z,60.57
2023-04-21T03:23:30.325Z,60.53
2023-04-21T03:25:58.582Z,60.18
2023-04-21T03:28:27.006Z,60.27
2023-04-21T03:30:55.388Z,60.35
2023-04-21T03:33:23.600Z,59.79
2023-04-21T03:35:51.956Z,59.66
2023-04-21T03:38:21.775Z,59.70
2023-04-21T03:40:50.382Z,59.76
2023-04-21T03:43:18.649Z,59.41
2023-04-21T03:45:47.687Z,59.70
2023-04-21T03:48:16.071Z,59.26
2023-04-21T03:50:44.310Z,59.27
2023-04-21T03:53:12.868Z,59.45
2023-04-21T03:55:42.518Z,59.90
2023-04-21T03:58:10.733Z,59.44
2023-04-21T04:00:39.065Z,59.19
2023-04-21T04:03:07.648Z,59.01
2023-04-21T04:05:37.290Z,59.35
2023-04-21T04:08:06.540Z,59.14
2023-04-21T04:10:34.803Z,59.02
2023-04-21T04:13:04.414Z,58.98
2023-04-21T04:15:32.832Z,59.04
2023-04-21T04:18:01.733Z,58.99
2023-04-21T04:20:30.319Z,59.08
2023-04-21T04:22:58.616Z,59.01
2023-04-21T04:25:27.230Z,58.80
2023-04-21T04:27:55.667Z,58.69
2023-04-21T04:30:28.010Z,59.09
2023-04-21T04:32:57.833Z,58.68
2023-04-21T04:35:26.194Z,58.72
2023-04-21T04:37:55.068Z,58.80
2023-04-21T04:40:23.526Z,58.96
2023-04-21T04:42:52.415Z,58.73
2023-04-21T04:45:21.399Z,58.58
2023-04-21T04:47:51.830Z,58.71
2023-04-21T04:50:20.319Z,58.80
2023-04-21T04:52:49.770Z,58.64
2023-04-21T04:55:18.823Z,58.88
2023-04-21T04:57:47.001Z,58.77
2023-04-21T05:00:15.865Z,58.93
2023-04-21T05:02:44.269Z,58.99
2023-04-21T05:05:14.269Z,58.98
2023-04-21T05:07:42.684Z,59.08
2023-04-21T05:10:11.129Z,59.14
2023-04-21T05:12:39.375Z,58.74
2023-04-21T05:15:08.699Z,58.76
2023-04-21T05:17:36.982Z,58.48
2023-04-21T05:20:06.004Z,58.66
2023-04-21T05:22:38.210Z,58.44
2023-04-21T05:25:07.571Z,58.25
2023-04-21T05:27:35.802Z,58.58
2023-04-21T05:30:04.090Z,58.29
2023-04-21T05:32:32.681Z,58.42
2023-04-21T05:35:01.178Z,58.16
2023-04-21T05:37:29.700Z,58.28
2023-04-21T05:39:59.423Z,58.37
2023-04-21T05:42:27.696Z,58.38
2023-04-21T05:44:56.022Z,58.35
2023-04-21T05:47:24.272Z,58.25
2023-04-21T05:49:53.877Z,58.12
2023-04-21T05:52:22.575Z,58.11
2023-04-21T05:54:50.871Z,57.81
2023-04-21T05:57:20.505Z,57.89
2023-04-21T05:59:48.792Z,57.51
2023-04-21T06:02:17.179Z,57.38
2023-04-21T06:04:45.661Z,57.60
2023-04-21T06:07:14.796Z,57.45
2023-04-21T06:09:44.239Z,57.55
2023-04-21T06:12:12.465Z,57.19
2023-04-21T06:14:42.059Z,57.39
2023-04-21T06:17:10.426Z,57.84
2023-04-21T06:19:40.834Z,57.55
2023-04-21T06:22:10.334Z,57.73
2023-04-21T06:24:38.607Z,57.77
2023-04-21T06:27:11.858Z,57.62
2023-04-21T06:29:42.694Z,57.34
2023-04-21T06:32:11.415Z,57.62
2023-04-21T06:34:39.753Z,57.80
2023-04-21T06:37:08.007Z,58.03
2023-04-21T06:39:36.437Z,58.03
2023-04-21T06:42:04.969Z,58.35
2023-04-21T06:44:41.065Z,57.66
2023-04-21T06:47:09.695Z,58.01
2023-04-21T06:49:38.219Z,58.48
2023-04-21T06:52:06.483Z,58.25
2023-04-21T06:54:34.787Z,58.92
2023-04-21T06:57:03.257Z,58.34
2023-04-21T06:59:31.474Z,59.12
2023-04-21T07:02:01.253Z,58.32
2023-04-21T07:04:32.303Z,58.46
2023-04-21T07:07:03.066Z,58.64
2023-04-21T07:09:33.855Z,58.52
2023-04-21T07:12:02.737Z,58.32
2023-04-21T07:14:31.037Z,58.81
2023-04-21T07:17:00.767Z,58.92
2023-04-21T07:19:29.069Z,59.29
2023-04-21T07:21:58.268Z,59.57
2023-04-21T07:24:26.518Z,59.90
2023-04-21T07:26:54.812Z,59.30
2023-04-21T07:29:23.102Z,59.90
2023-04-21T07:31:51.877Z,60.05
2023-04-21T07:34:21.528Z,59.19
2023-04-21T07:36:49.786Z,60.00
2023-04-21T07:39:18.266Z,60.73
2023-04-21T07:41:46.641Z,60.54
2023-04-21T07:44:15.141Z,60.19
2023-04-21T07:46:43.605Z,60.09
2023-04-21T07:49:11.941Z,60.36
2023-04-21T07:51:41.629Z,60.51
2023-04-21T07:54:10.147Z,59.96
2023-04-21T07:56:39.749Z,60.01
2023-04-21T07:59:08.131Z,61.04
2023-04-21T08:01:36.477Z,60.54
2023-04-21T08:04:04.825Z,61.34
2023-04-21T08:06:33.569Z,61.26
2023-04-21T08:09:03.607Z,60.91
2023-04-21T08:11:31.850Z,61.28
2023-04-21T08:14:00.140Z,61.25
2023-04-21T08:16:28.476Z,61.77
2023-04-21T08:18:56.890Z,59.98
2023-04-21T08:21:25.611Z,61.63
2023-04-21T08:23:55.628Z,61.05
2023-04-21T08:26:25.731Z,61.95
2023-04-21T08:28:54.247Z,62.64
2023-04-21T08:31:22.933Z,61.39
2023-04-21T08:34:01.184Z,61.28
2023-04-21T08:36:30.752Z,61.90
2023-04-21T08:38:59.196Z,62.41
2023-04-21T08:41:28.951Z,62.35
2023-04-21T08:43:57.217Z,60.58
2023-04-21T08:46:25.695Z,61.57
2023-04-21T08:48:55.437Z,61.74
2023-04-21T08:51:25.349Z,62.82
2023-04-21T08:53:55.589Z,61.92
2023-04-21T08:56:26.230Z,61.80
2023-04-21T08:58:55.968Z,61.47
2023-04-21T09:01:24.311Z,62.21
2023-04-21T09:03:52.850Z,61.90
2023-04-21T09:06:22.728Z,60.84
2023-04-21T09:08:56.002Z,62.32
2023-04-21T09:11:24.570Z,62.43
2023-04-21T09:13:53.014Z,62.43
2023-04-21T09:16:23.470Z,61.25
2023-04-21T09:18:52.180Z,61.79
2023-04-21T09:21:23.255Z,60.41
2023-04-21T09:23:53.553Z,61.36
2023-04-21T09:26:23.827Z,60.24
2023-04-21T09:28:53.278Z,61.97
2023-04-21T09:31:25.632Z,61.18
2023-04-21T09:33:59.672Z,60.06
2023-04-21T09:36:32.335Z,62.20
2023-04-21T09:39:29.137Z,61.91
2023-04-21T09:41:51.253Z,60.69
2023-04-21T09:44:21.446Z,60.57
2023-04-21T09:46:52.399Z,60.31
2023-04-21T09:49:24.099Z,61.06
2023-04-21T09:52:10.421Z,60.59
2023-04-21T09:54:50.788Z,60.83
2023-04-21T09:57:25.382Z,57.78
2023-04-21T09:59:58.952Z,59.44
2023-04-21T10:02:32.395Z,59.45
2023-04-21T10:05:01.139Z,59.86
2023-04-21T10:07:29.714Z,58.67
2023-04-21T10:09:59.294Z,60.18
2023-04-21T10:12:29.139Z,60.07
2023-04-21T10:14:58.041Z,62.12
2023-04-21T10:17:28.350Z,59.27
2023-04-21T10:19:58.302Z,59.87
2023-04-21T10:22:31.435Z,60.98
2023-04-21T10:25:01.145Z,59.23
2023-04-21T10:27:33.833Z,100.71
2023-04-21T10:30:20.403Z,97.94
2023-04-21T10:33:02.883Z,104.94
2023-04-21T10:36:02.369Z,103.67
2023-04-21T10:38:40.916Z,105.26
2023-04-21T10:41:27.998Z,107.38
2023-04-21T10:43:59.592Z,107.57
2023-04-21T10:46:35.508Z,103.02
2023-04-21T10:49:09.672Z,104.02
2023-04-21T10:52:06.507Z,106.43
2023-04-21T10:54:42.018Z,105.50
2023-04-21T10:57:12.129Z,106.20
2023-04-21T10:59:41.058Z,105.01
2023-04-21T11:02:12.062Z,107.97
2023-04-21T11:04:46.075Z,104.31
2023-04-21T11:07:17.193Z,99.84
2023-04-21T11:09:47.934Z,102.61
2023-04-21T11:12:19.824Z,103.90
2023-04-21T11:14:49.041Z,98.16
2023-04-21T11:17:19.018Z,94.70
2023-04-21T11:19:52.509Z,94.72
2023-04-21T11:22:23.484Z,95.79
2023-04-21T11:24:55.871Z,93.57
2023-04-21T11:27:24.687Z,91.97
2023-04-21T11:29:53.454Z,92.01
2023-04-21T11:32:22.510Z,93.21
2023-04-21T11:34:52.338Z,95.21
2023-04-21T11:37:25.995Z,93.69
2023-04-21T11:40:01.204Z,92.95
2023-04-21T11:42:29.937Z,96.30
2023-04-21T11:44:59.218Z,95.43
2023-04-21T11:47:28.964Z,95.40
2023-04-21T11:50:00.181Z,91.47
2023-04-21T11:52:30.948Z,93.44
2023-04-21T11:55:01.377Z,92.49
2023-04-21T11:57:31.226Z,91.48
2023-04-21T12:00:00.167Z,91.63
2023-04-21T12:02:30.973Z,91.54
2023-04-21T12:05:03.586Z,92.63
2023-04-21T12:07:32.998Z,86.62
2023-04-21T12:10:02.782Z,85.41
2023-04-21T12:12:31.828Z,83.54
2023-04-21T12:15:04.572Z,88.54
2023-04-21T12:17:38.482Z,85.32
2023-04-21T12:20:09.761Z,89.78
2023-04-21T12:22:38.188Z,89.92
2023-04-21T12:25:07.414Z,86.70
2023-04-21T12:27:35.807Z,84.76
2023-04-21T12:30:04.641Z,87.09
2023-04-21T12:32:33.279Z,88.63
2023-04-21T12:35:02.322Z,87.38
2023-04-21T12:37:32.155Z,85.75
2023-04-21T12:40:00.483Z,86.14
2023-04-21T12:42:28.739Z,88.77
2023-04-21T12:44:57.018Z,87.90
2023-04-21T12:47:25.409Z,84.49
2023-04-21T12:49:53.676Z,80.31
2023-04-21T12:52:22.009Z,80.76
2023-04-21T12:54:51.646Z,81.39
2023-04-21T12:57:20.385Z,82.87
2023-04-21T12:59:49.112Z,82.21
2023-04-21T13:02:17.763Z,85.77
2023-04-21T13:04:46.256Z,82.68
2023-04-21T13:07:16.182Z,82.27
2023-04-21T13:09:44.824Z,83.45
2023-04-21T13:12:14.467Z,85.22
2023-04-21T13:14:42.811Z,86.98
2023-04-21T13:17:11.339Z,84.78
2023-04-21T13:19:39.678Z,84.64
2023-04-21T13:22:08.049Z,82.63
2023-04-21T13:24:36.495Z,81.37
2023-04-21T13:27:04.863Z,82.50
2023-04-21T13:29:35.025Z,83.00
2023-04-21T13:32:03.508Z,79.47
2023-04-21T13:34:32.992Z,78.27
2023-04-21T13:37:01.658Z,80.01
2023-04-21T13:39:30.436Z,79.21
2023-04-21T13:41:58.900Z,78.01
2023-04-21T13:44:27.378Z,78.54
2023-04-21T13:46:57.447Z,77.74
2023-04-21T13:49:25.876Z,76.18
2023-04-21T13:51:54.131Z,76.53
2023-04-21T13:54:22.734Z,76.57
2023-04-21T13:56:51.156Z,76.40
2023-04-21T13:59:21.103Z,79.25
2023-04-21T14:01:49.461Z,78.14
2023-04-21T14:04:21.230Z,76.79
2023-04-21T14:06:51.577Z,76.90
2023-04-21T14:09:20.030Z,77.89
2023-04-21T14:11:48.837Z,77.72
2023-04-21T14:14:27.655Z,78.60
2023-04-21T14:17:05.750Z,79.07
2023-04-21T14:19:35.988Z,78.59
2023-04-21T14:22:04.643Z,76.86
2023-04-21T14:24:33.001Z,76.76
2023-04-21T14:27:01.287Z,77.29
2023-04-21T14:29:29.540Z,76.94
2023-04-21T14:32:00.789Z,75.99
2023-04-21T14:34:29.179Z,78.49
2023-04-21T14:36:59.788Z,76.70
2023-04-21T14:39:28.327Z,78.11
2023-04-21T14:41:57.012Z,77.60
2023-04-21T14:44:25.291Z,79.27
2023-04-21T14:47:05.464Z,77.93
2023-04-21T14:49:37.390Z,78.72
2023-04-21T14:52:07.904Z,78.42
2023-04-21T14:54:36.406Z,73.86
2023-04-21T14:57:18.789Z,74.44
2023-04-21T14:59:49.205Z,73.01
2023-04-21T15:02:17.651Z,74.60
2023-04-21T15:04:46.075Z,74.06
2023-04-21T15:07:19.884Z,73.19
2023-04-21T15:09:52.222Z,74.16
2023-04-21T15:12:20.582Z,72.85
2023-04-21T15:14:48.900Z,71.65
2023-04-21T15:17:17.169Z,70.66
2023-04-21T15:19:45.446Z,69.07
2023-04-21T15:22:15.543Z,70.24
2023-04-21T15:24:44.017Z,69.36
2023-04-21T15:27:12.610Z,67.60
2023-04-21T15:29:41.109Z,65.34
2023-04-21T15:32:09.631Z,68.85
2023-04-21T15:34:37.945Z,70.98
2023-04-21T15:37:06.817Z,70.79
2023-04-21T15:39:36.864Z,68.85
2023-04-21T15:42:05.801Z,68.25
2023-04-21T15:44:34.939Z,70.28
2023-04-21T15:47:03.325Z,67.40
2023-04-21T15:49:31.846Z,66.76
2023-04-21T15:52:00.239Z,65.38
2023-04-21T15:54:28.788Z,64.65
2023-04-21T15:56:58.743Z,66.15
2023-04-21T15:59:27.369Z,66.42
2023-04-21T16:01:56.875Z,65.56
2023-04-21T16:04:25.425Z,66.21
2023-04-21T16:06:54.051Z,67.35
2023-04-21T16:09:22.537Z,67.97
2023-04-21T16:11:51.528Z,69.87
2023-04-21T16:14:21.405Z,68.64
2023-04-21T16:16:49.746Z,67.86
2023-04-21T16:19:18.138Z,67.65
2023-04-21T16:21:46.442Z,67.68
2023-04-21T16:24:14.869Z,68.01
2023-04-21T16:26:43.226Z,66.36
2023-04-21T16:29:11.838Z,66.59
2023-04-21T16:31:41.590Z,67.20
2023-04-21T16:34:09.953Z,65.28
2023-04-21T16:36:38.262Z,64.65
2023-04-21T16:39:06.887Z,67.32
2023-04-21T16:41:35.168Z,67.53
2023-04-21T16:44:03.621Z,71.41
2023-04-21T16:46:31.991Z,73.62
2023-04-21T16:49:01.714Z,74.51
2023-04-21T16:51:29.993Z,74.26
2023-04-21T16:53:58.483Z,73.95
2023-04-21T16:56:26.788Z,75.28
2023-04-21T16:58:55.217Z,75.33
2023-04-21T17:01:23.546Z,71.73
2023-04-21T17:03:52.106Z,71.40
2023-04-21T17:06:21.959Z,71.54
2023-04-21T17:08:50.229Z,74.73
2023-04-21T17:11:18.544Z,75.93
2023-04-21T17:13:46.887Z,78.18
2023-04-21T17:16:15.239Z,86.31
2023-04-21T17:18:43.560Z,55.18
2023-04-21T17:21:12.687Z,55.29
2023-04-21T17:23:42.307Z,53.98
2023-04-21T17:26:13.130Z,51.37
2023-04-21T17:28:42.052Z,51.11
2023-04-21T17:31:15.595Z,49.76
2023-04-21T17:33:45.166Z,50.38
2023-04-21T17:36:13.551Z,49.95
2023-04-21T17:38:43.273Z,49.20
2023-04-21T17:41:11.727Z,51.04
2023-04-21T17:43:40.032Z,51.47
2023-04-21T17:46:09.225Z,50.90
2023-04-21T17:48:37.498Z,50.22
2023-04-21T17:51:05.905Z,50.05
2023-04-21T17:53:34.622Z,50.38
2023-04-21T17:56:04.332Z,50.30
2023-04-21T17:58:32.631Z,49.91
2023-04-21T18:01:00.947Z,49.21
2023-04-21T18:03:29.537Z,50.83
2023-04-21T18:05:58.430Z,49.44
2023-04-21T18:08:26.943Z,50.21
2023-04-21T18:10:56.018Z,49.85
2023-04-21T18:13:25.729Z,49.70
2023-04-21T18:15:54.058Z,49.69
2023-04-21T18:18:22.403Z,49.79
2023-04-21T18:20:50.688Z,49.77
2023-04-21T18:23:18.996Z,49.44
2023-04-21T18:25:47.651Z,50.02
2023-04-21T18:28:16.021Z,50.19
2023-04-21T18:30:45.686Z,49.84
2023-04-21T18:33:14.047Z,49.98
2023-04-21T18:35:42.944Z,50.47
2023-04-21T18:38:11.896Z,50.29
2023-04-21T18:40:41.385Z,50.59
2023-04-21T18:43:10.929Z,50.08
2023-04-21T18:45:39.648Z,50.57
2023-04-21T18:48:09.579Z,51.04
2023-04-21T18:50:40.325Z,51.04
2023-04-21T18:53:09.608Z,50.47
2023-04-21T18:55:38.482Z,50.79
2023-04-21T18:58:07.088Z,50.50
2023-04-21T19:00:38.827Z,50.26
2023-04-21T19:03:07.779Z,50.44
2023-04-21T19:05:40.492Z,50.40
2023-04-21T19:08:10.326Z,50.35
2023-04-21T19:10:39.181Z,50.09
2023-04-21T19:13:07.506Z,49.70
2023-04-21T19:15:36.686Z,50.27
2023-04-21T19:18:05.292Z,50.30
2023-04-21T19:20:35.655Z,50.17
2023-04-21T19:23:06.130Z,50.49
2023-04-21T19:25:34.887Z,50.69
2023-04-21T19:28:03.243Z,50.93
2023-04-21T19:30:31.612Z,51.63
2023-04-21T19:32:59.873Z,51.89
2023-04-21T19:35:28.801Z,51.21
2023-04-21T19:37:57.072Z,51.52
2023-04-21T19:40:27.036Z,52.50
2023-04-21T19:42:55.748Z,51.83
2023-04-21T19:45:24.066Z,51.75
2023-04-21T19:47:52.724Z,50.92
2023-04-21T19:50:21.400Z,51.53
2023-04-21T19:52:49.676Z,52.65
2023-04-21T19:55:17.959Z,53.52
2023-04-21T19:57:47.586Z,53.39
2023-04-21T20:00:16.878Z,53.45
2023-04-21T20:02:45.294Z,53.67
2023-04-21T20:05:14.039Z,54.21
2023-04-21T20:07:42.315Z,54.90
2023-04-21T20:10:11.856Z,54.94
2023-04-21T20:12:40.205Z,54.16
2023-04-21T20:15:11.916Z,52.93
2023-04-21T20:17:41.490Z,52.21
2023-04-21T20:20:11.044Z,52.55
2023-04-21T20:22:39.495Z,53.00
2023-04-21T20:25:08.555Z,53.16
2023-04-21T20:27:36.841Z,52.80
2023-04-21T20:30:05.955Z,52.30
2023-04-21T20:32:36.613Z,52.07
2023-04-21T20:35:05.706Z,52.19
2023-04-21T20:37:34.278Z,52.56
2023-04-21T20:40:04.628Z,52.10
2023-04-21T20:42:33.446Z,51.66
2023-04-21T20:45:03.637Z,51.68
2023-04-21T20:47:35.926Z,51.23
2023-04-21T20:50:04.884Z,51.15
2023-04-21T20:52:33.196Z,50.37
2023-04-21T20:55:01.567Z,50.57
2023-04-21T20:57:30.287Z,50.69
2023-04-21T20:59:58.501Z,51.01
2023-04-21T21:02:27.009Z,50.72
2023-04-21T21:04:56.760Z,51.01
2023-04-21T21:07:25.390Z,51.04
2023-04-21T21:09:53.711Z,51.14
2023-04-21T21:12:22.261Z,51.74
2023-04-21T21:14:50.525Z,51.88
2023-04-21T21:17:18.908Z,51.71
2023-04-21T21:19:47.177Z,52.30
2023-04-21T21:22:16.849Z,52.23
2023-04-21T21:24:45.099Z,52.34
2023-04-21T21:27:13.528Z,51.68
2023-04-21T21:29:41.950Z,51.33
2023-04-21T21:32:10.281Z,51.75
2023-04-21T21:34:38.765Z,51.96
2023-04-21T21:37:07.026Z,52.28
2023-04-21T21:39:36.895Z,52.57
2023-04-21T21:42:05.828Z,52.14
2023-04-21T21:44:34.063Z,52.30
2023-04-21T21:47:02.338Z,52.81
2023-04-21T21:49:30.605Z,52.56
2023-04-21T21:51:58.969Z,52.11
2023-04-21T21:54:27.175Z,52.29
2023-04-21T21:56:57.651Z,52.16
2023-04-21T21:59:26.199Z,52.85
2023-04-21T22:01:54.567Z,52.69
2023-04-21T22:04:22.870Z,52.62
2023-04-21T22:06:52.008Z,52.91
2023-04-21T22:09:21.017Z,52.70
2023-04-21T22:11:49.379Z,52.81
2023-04-21T22:14:23.504Z,52.69
2023-04-21T22:16:54.007Z,52.26
2023-04-21T22:19:22.689Z,52.40
2023-04-21T22:21:50.997Z,52.29
2023-04-21T22:24:19.560Z,52.88
2023-04-21T22:26:48.350Z,52.46
2023-04-21T22:29:17.994Z,52.94
2023-04-21T22:31:46.357Z,53.24
2023-04-21T22:34:15.096Z,53.16
2023-04-21T22:36:43.520Z,53.43
2023-04-21T22:39:11.818Z,53.30
2023-04-21T22:41:40.290Z,53.37
2023-04-21T22:44:08.668Z,53.22
2023-04-21T22:46:38.432Z,52.80
2023-04-21T22:49:06.773Z,53.48
2023-04-21T22:51:35.067Z,53.17
2023-04-21T22:54:03.472Z,52.69
2023-04-21T22:56:32.093Z,52.24
2023-04-21T22:59:00.776Z,52.56
2023-04-21T23:01:29.195Z,52.90
2023-04-21T23:03:59.103Z,52.76
2023-04-21T23:06:28.415Z,52.75
2023-04-21T23:08:56.771Z,52.72
2023-04-21T23:11:25.344Z,53.14
2023-04-21T23:13:53.671Z,53.36
2023-04-21T23:16:21.955Z,53.40
2023-04-21T23:18:50.236Z,53.54
2023-04-21T23:21:19.897Z,53.15
2023-04-21T23:23:48.112Z,53.37
2023-04-21T23:26:16.364Z,52.68
2023-04-21T23:28:44.633Z,52.73
2023-04-21T23:31:12.914Z,52.09
2023-04-21T23:33:41.252Z,52.54
2023-04-21T23:36:09.675Z,52.59
2023-04-21T23:38:39.297Z,53.20
2023-04-21T23:41:07.636Z,53.31
2023-04-21T23:43:37.289Z,53.51
2023-04-21T23:46:05.613Z,53.58
2023-04-21T23:48:34.847Z,54.10
2023-04-21T23:51:03.219Z,54.39
2023-04-21T23:53:31.621Z,54.07
2023-04-21T23:56:01.403Z,53.94
2023-04-21T23:58:29.650Z,53.71
